Sea Hawk — WDD9287 — position and weather

sailwx.info

Track history (hours):
 
Tides and Currents Weather Stations Pressure Air Temp Water Temp Dewpoint Dewpoint Depression Visibility Wind Speed Wind Dir Waves Ship Positions

Sea Hawk

Owner: Kirby Offshore Marine, LLC, HOUSTON, TX. More information available from US FCC via Universal Licensing System and Coast Guard Vessel Documentation Center.

Last reported at 2018-Apr-20 14:30 UTC. Time now 2018-Apr-20 14:43 UTC.
Position N 53°51' W 130°55'.

Length 36 m; draft 4.4 m.

Type: Tow > 200 m length. MMSI: 367309440.

Date/timePositionNaut miles runAvg speedWind from/ knotsBaromVisibWave heightAir tempDewpointWater temp
2018-Apr-20 14:30N 53°51' W 130°55'4 7.5
2018-Apr-20 14:00N 53°48' W 130°53'4 7.4
2018-Apr-20 13:27N 53°44' W 130°51'3 7.0
2018-Apr-20 12:59N 53°41' W 130°49'332 6.8
2018-Apr-18 12:21N 48°50' W 126°32'3 6.9
2018-Apr-18 11:57N 48°49' W 126°29'3 6.9
2018-Apr-18 11:29N 48°47' W 126°25'3 6.9
2018-Apr-18 10:58N 48°44' W 126°21'3 6.7
2018-Apr-18 10:29N 48°42' W 126°17'3 6.6
2018-Apr-18 10:00N 48°40' W 126°14'3 6.6
2018-Apr-18 09:29N 48°39' W 126°09'3 6.8
2018-Apr-18 09:00N 48°38' W 126°04'4 7.0
2018-Apr-18 08:30N 48°37' W 125°59'3 6.6
2018-Apr-18 08:00N 48°37' W 125°54'3 6.8
2018-Apr-18 07:30N 48°36' W 125°49'4 7.0
2018-Apr-18 07:00N 48°35' W 125°44'3 6.7
2018-Apr-18 06:30N 48°34' W 125°39'3 6.9
2018-Apr-18 06:00N 48°33' W 125°34'4 6.8
2018-Apr-18 05:24N 48°32' W 125°28'3 6.7
2018-Apr-18 04:59N 48°31' W 125°24'3 6.2
2018-Apr-18 04:30N 48°30' W 125°20'5 6.3
2018-Apr-18 03:39N 48°29' W 125°12'2 6.4
2018-Apr-18 03:21N 48°29' W 125°09'3 6.5
2018-Apr-18 02:58N 48°28' W 125°05'3 6.6
2018-Apr-18 02:30N 48°27' W 125°01'3 6.2
2018-Apr-18 02:00N 48°27' W 124°56'3 6.5
2018-Apr-18 01:30N 48°27' W 124°51'3 5.9
2018-Apr-18 01:00N 48°27' W 124°47'3 5.4
2018-Apr-18 00:30N 48°26' W 124°43'3 5.1
2018-Apr-18 00:00N 48°25' W 124°40'3 5.5
2018-Apr-17 23:30N 48°24' W 124°36'3 5.1
2018-Apr-17 23:00N 48°23' W 124°32'3 5.0
2018-Apr-17 22:30N 48°22' W 124°29'2 5.0
2018-Apr-17 22:00N 48°21' W 124°26'3 5.3
2018-Apr-17 21:30N 48°20' W 124°22'3 6.1
2018-Apr-17 21:00N 48°18' W 124°18'3 6.0
2018-Apr-17 20:30N 48°17' W 124°14'3 5.9
2018-Apr-17 20:00N 48°16' W 124°09'3 5.6
2018-Apr-17 19:30N 48°15' W 124°06'38 7.5
2018-Apr-17 14:28N 48°13' W 123°09'3 5.8
2018-Apr-17 13:59N 48°13' W 123°05'3 4.8
2018-Apr-17 13:26N 48°13' W 123°01'2 4.6
2018-Apr-17 13:00N 48°12' W 122°58'22 4.4
2018-Apr-17 07:55N 47°57' W 122°33'3 8.0
2018-Apr-17 07:30N 47°56' W 122°29'4 7.7
2018-Apr-17 07:00N 47°52' W 122°28'4 8.1
2018-Apr-17 06:30N 47°48' W 122°26'4 7.9
2018-Apr-17 06:00N 47°44' W 122°26'4 8.5
2018-Apr-17 05:30N 47°40' W 122°27'4 8.1
2018-Apr-17 05:00N 47°36' W 122°27'4 7.8
2018-Apr-17 04:31N 47°32' W 122°25'4 7.8
2018-Apr-17 04:00N 47°28' W 122°24'4 8.5
2018-Apr-17 03:30N 47°24' W 122°21'3 6.7
2018-Apr-17 03:00N 47°21' W 122°23'3 7.0
2018-Apr-17 02:30N 47°19' W 122°27'1 2.0
2018-Apr-17 01:59N 47°18' W 122°27'1 2.1
2018-Apr-17 01:24N 47°17' W 122°25'0 0.1
2018-Apr-17 00:51N 47°18' W 122°25'0 0.0
2018-Apr-17 00:21N 47°18' W 122°25'0 0.0
2018-Apr-16 23:45N 47°18' W 122°25'0 0.0
2018-Apr-16 23:27N 47°18' W 122°25'0 0.0
2018-Apr-16 23:00N 47°18' W 122°25'0 0.0
2018-Apr-16 22:21N 47°18' W 122°25'0 0.1
2018-Apr-16 22:00N 47°18' W 122°25'0 0.0
2018-Apr-16 21:30N 47°18' W 122°25'0 0.0
2018-Apr-16 20:24N 47°18' W 122°25'0 0.0
2018-Apr-16 20:00N 47°17' W 122°25'0 0.0
2018-Apr-16 18:27N 47°18' W 122°25'0 0.0
2018-Apr-16 17:51N 47°18' W 122°25'0 0.1
2018-Apr-16 17:27N 47°18' W 122°25'0 0.1
2018-Apr-16 17:00N 47°17' W 122°25'0 0.1
2018-Apr-16 16:27N 47°18' W 122°25'0 0.1
2018-Apr-16 16:00N 47°18' W 122°25'0 0.1
2018-Apr-16 15:30N 47°17' W 122°25'1 2.9
2018-Apr-16 15:00N 47°16' W 122°24'0 0.0
2018-Apr-15 16:39N 47°16' W 122°24'0 0.0
2018-Apr-15 16:12N 47°16' W 122°24'0 0.3
2018-Apr-15 16:00N 47°16' W 122°24'0 0.1
2018-Apr-15 14:58N 47°16' W 122°24'2 3.5
2018-Apr-15 14:30N 47°17' W 122°26'2 3.3
2018-Apr-15 14:01N 47°18' W 122°28'4 8.3
2018-Apr-15 13:31N 47°22' W 122°25'4 7.2
2018-Apr-15 13:01N 47°25' W 122°24'5 9.3
2018-Apr-15 12:30N 47°30' W 122°26'5 9.2
2018-Apr-15 12:00N 47°34' W 122°27'4 7.7
2018-Apr-15 11:30N 47°36' W 122°22'2 3.1
2018-Apr-15 11:01N 47°35' W 122°22'0 0.1
2018-Apr-15 10:30N 47°35' W 122°22'0 0.0
2018-Apr-15 10:00N 47°35' W 122°22'0 0.0
2018-Apr-15 09:30N 47°35' W 122°22'0 0.0
2018-Apr-15 09:00N 47°35' W 122°22'0 0.0
2018-Apr-15 08:30N 47°35' W 122°22'0 0.0
2018-Apr-15 08:00N 47°35' W 122°22'0 0.0
2018-Apr-15 07:30N 47°35' W 122°22'0 0.0
2018-Apr-15 07:00N 47°35' W 122°22'0 0.0
2018-Apr-15 06:30N 47°35' W 122°22'0 0.0
2018-Apr-15 06:00N 47°35' W 122°22'0 0.0
2018-Apr-15 05:30N 47°35' W 122°22'0 0.0
2018-Apr-15 05:00N 47°35' W 122°22'0 0.0
2018-Apr-15 04:24N 47°35' W 122°22'0 0.0
2018-Apr-15 04:00N 47°35' W 122°22'0 0.0
2018-Apr-15 03:27N 47°35' W 122°22'0 0.0
2018-Apr-15 03:00N 47°35' W 122°22'0 0.0
2018-Apr-15 02:21N 47°35' W 122°22'0 0.0
2018-Apr-15 02:00N 47°35' W 122°22'0 0.0
2018-Apr-15 01:30N 47°35' W 122°22'0 0.0
2018-Apr-15 00:57N 47°35' W 122°22'0 0.0
2018-Apr-15 00:30N 47°35' W 122°22'0 0.0
2018-Apr-15 00:00N 47°35' W 122°22'0 0.0
2018-Apr-14 23:30N 47°35' W 122°22'1 1.5
2018-Apr-14 22:59N 47°35' W 122°21'0 0.0
2018-Apr-14 22:29N 47°35' W 122°21'0 0.0
2018-Apr-14 21:59N 47°35' W 122°21'0 0.0
2018-Apr-14 21:29N 47°35' W 122°21'0 0.0
2018-Apr-14 20:59N 47°35' W 122°21'0 0.0
2018-Apr-14 20:23N 47°35' W 122°21'0 0.0
2018-Apr-14 19:59N 47°35' W 122°21'0 0.9
2018-Apr-14 19:30N 47°35' W 122°22'0 0.8
2018-Apr-14 19:00N 47°35' W 122°22'0 0.0
2018-Apr-14 18:30N 47°35' W 122°22'0 0.0
2018-Apr-14 18:00N 47°35' W 122°22'0 0.9
2018-Apr-14 17:30N 47°35' W 122°22'1 2.3
2018-Apr-14 17:00N 47°36' W 122°23'1 1.2
2018-Apr-14 16:30N 47°36' W 122°22'1 1.3
2018-Apr-14 16:00N 47°35' W 122°22'0 0.9
2018-Apr-14 15:30N 47°35' W 122°22'0 0.0
2018-Apr-14 15:00N 47°35' W 122°22'0 0.0
2018-Apr-14 14:30N 47°35' W 122°22'0 0.0
2018-Apr-14 14:00N 47°35' W 122°22'0 0.0
2018-Apr-14 13:30N 47°35' W 122°22'0 0.0
2018-Apr-14 13:00N 47°35' W 122°22'0 0.0
2018-Apr-14 12:30N 47°35' W 122°22'0 0.0
2018-Apr-14 12:00N 47°35' W 122°22'0 0.0
2018-Apr-14 11:30N 47°35' W 122°22'0 0.0
2018-Apr-14 11:00N 47°35' W 122°22'0 0.0
2018-Apr-14 10:30N 47°35' W 122°22'0 0.0
2018-Apr-14 10:00N 47°35' W 122°22'0 0.0
2018-Apr-14 09:30N 47°35' W 122°22'0 0.0
2018-Apr-14 09:00N 47°35' W 122°22'0 0.0
2018-Apr-14 08:30N 47°35' W 122°22'0 0.0
2018-Apr-14 08:00N 47°35' W 122°22'0 0.0
2018-Apr-14 07:30N 47°35' W 122°22'0 0.0
2018-Apr-14 07:00N 47°35' W 122°22'0 0.0
2018-Apr-14 06:30N 47°35' W 122°22'0 0.0
2018-Apr-14 05:57N 47°35' W 122°22'0 0.0
2018-Apr-14 05:30N 47°35' W 122°22'0 0.0
2018-Apr-14 05:00N 47°35' W 122°22'0 0.0
2018-Apr-14 04:30N 47°35' W 122°22'0 0.0
2018-Apr-14 04:00N 47°35' W 122°22'0 0.0
2018-Apr-14 03:29N 47°35' W 122°22'0 0.0
2018-Apr-14 02:59N 47°35' W 122°22'0 0.0
2018-Apr-14 02:29N 47°35' W 122°22'0 0.0
2018-Apr-14 01:59N 47°35' W 122°22'0 0.0
2018-Apr-14 01:29N 47°35' W 122°22'0 0.0
2018-Apr-14 00:59N 47°35' W 122°22'0 0.0
2018-Apr-14 00:29N 47°35' W 122°22'0 0.0
2018-Apr-14 00:00N 47°35' W 122°22'3 6.3
2018-Apr-13 23:30N 47°37' W 122°24'4 7.4
2018-Apr-13 23:00N 47°41' W 122°25'2 2.9
2018-Apr-13 22:29N 47°40' W 122°24'0 0.2
2018-Apr-13 21:59N 47°40' W 122°23'0 0.0
2018-Apr-13 21:29N 47°40' W 122°23'0 0.0
2018-Apr-13 20:59N 47°40' W 122°23'0 0.0
2018-Apr-13 20:29N 47°40' W 122°23'0 0.0
2018-Apr-13 19:59N 47°40' W 122°23'0 0.0
2018-Apr-13 19:29N 47°40' W 122°23'0 0.0
2018-Apr-13 18:59N 47°40' W 122°23'0 0.0
2018-Apr-13 18:29N 47°40' W 122°23'0 0.0
2018-Apr-13 17:59N 47°40' W 122°23'0 0.0
2018-Apr-13 17:26N 47°40' W 122°23'0 0.0
2018-Apr-13 16:59N 47°40' W 122°23'0 0.0
2018-Apr-13 16:29N 47°40' W 122°23'0 0.0
2018-Apr-13 15:59N 47°40' W 122°23'0 0.0
2018-Apr-13 15:29N 47°40' W 122°23'0 0.0
2018-Apr-13 14:59N 47°40' W 122°23'0 0.0
2018-Apr-13 14:29N 47°40' W 122°23'0 0.0
2018-Apr-13 13:59N 47°40' W 122°23'0 0.0
2018-Apr-13 13:29N 47°40' W 122°23'0 0.0
2018-Apr-13 12:59N 47°40' W 122°23'0 0.0
2018-Apr-13 12:29N 47°40' W 122°23'0 0.0
2018-Apr-13 11:59N 47°40' W 122°23'0 0.0
2018-Apr-13 11:29N 47°40' W 122°23'0 0.0
2018-Apr-13 10:56N 47°40' W 122°23'0 0.0
2018-Apr-13 10:26N 47°40' W 122°23'0 0.0
2018-Apr-13 09:59N 47°40' W 122°23'0 0.0
2018-Apr-13 09:29N 47°40' W 122°23'0 0.0
2018-Apr-13 08:56N 47°40' W 122°23'0 0.0
2018-Apr-13 08:29N 47°40' W 122°23'0 0.0
2018-Apr-13 07:50N 47°40' W 122°23'0 0.0
2018-Apr-13 07:26N 47°40' W 122°23'0 0.0
2018-Apr-13 06:56N 47°40' W 122°23'0 0.0
2018-Apr-13 06:26N 47°40' W 122°23'0 0.0
2018-Apr-13 05:59N 47°40' W 122°23'0 0.0
2018-Apr-13 05:29N 47°40' W 122°23'0 0.0
2018-Apr-13 04:58N 47°40' W 122°23'0 0.0
2018-Apr-13 04:28N 47°40' W 122°23'0 0.0
2018-Apr-13 03:58N 47°40' W 122°23'0 0.0
2018-Apr-13 03:16N 47°40' W 122°23'0 0.0
2018-Apr-13 02:58N 47°40' W 122°23'0 0.0
2018-Apr-13 02:19N 47°40' W 122°23'0 0.0
2018-Apr-13 01:58N 47°40' W 122°23'0 0.0
2018-Apr-13 01:25N 47°40' W 122°23'0 0.0
2018-Apr-13 00:58N 47°40' W 122°23'0 0.0
2018-Apr-13 00:28N 47°40' W 122°23'0 0.0
2018-Apr-12 23:58N 47°40' W 122°23'0 0.0
2018-Apr-12 23:25N 47°40' W 122°23'0 0.0
2018-Apr-12 22:58N 47°40' W 122°23'0 0.0
2018-Apr-12 22:28N 47°40' W 122°23'0 0.0
2018-Apr-12 21:58N 47°40' W 122°23'0 0.0
2018-Apr-12 21:28N 47°40' W 122°23'0 0.0
2018-Apr-12 20:58N 47°40' W 122°23'0 0.0
2018-Apr-12 20:25N 47°40' W 122°23'0 0.0
2018-Apr-12 19:55N 47°40' W 122°23'0 0.0
2018-Apr-12 19:25N 47°40' W 122°23'0 0.0
2018-Apr-12 18:58N 47°40' W 122°23'0 0.0
2018-Apr-12 18:28N 47°40' W 122°23'0 0.0
2018-Apr-12 17:58N 47°40' W 122°23'0 0.0
2018-Apr-12 17:28N 47°40' W 122°23'0 0.0
2018-Apr-12 16:55N 47°40' W 122°23'0 0.0
2018-Apr-12 16:28N 47°40' W 122°23'0 0.0
2018-Apr-12 15:58N 47°40' W 122°23'0 0.0
2018-Apr-12 15:28N 47°40' W 122°23'0 0.0
2018-Apr-12 14:49N 47°40' W 122°23'0 0.0
2018-Apr-12 14:25N 47°40' W 122°23'0 0.0
2018-Apr-12 13:58N 47°40' W 122°23'0 0.0
2018-Apr-12 13:28N 47°40' W 122°23'0 0.0
2018-Apr-12 12:55N 47°40' W 122°23'0 0.0
2018-Apr-12 12:28N 47°40' W 122°23'0 0.0
2018-Apr-12 11:58N 47°40' W 122°23'0 0.0
2018-Apr-12 11:28N 47°40' W 122°23'0 0.0
2018-Apr-12 10:58N 47°40' W 122°23'0 0.0
2018-Apr-12 10:28N 47°40' W 122°23'0 0.0
2018-Apr-12 09:58N 47°40' W 122°23'0 0.0
2018-Apr-12 09:28N 47°40' W 122°23'0 0.0
2018-Apr-12 08:55N 47°40' W 122°23'0 0.0
2018-Apr-12 08:28N 47°40' W 122°23'0 0.0
2018-Apr-12 07:58N 47°40' W 122°23'0 0.0
2018-Apr-12 07:28N 47°40' W 122°23'0 0.0
2018-Apr-12 06:58N 47°40' W 122°23'0 0.0
2018-Apr-12 06:28N 47°40' W 122°23'0 0.0
2018-Apr-12 05:58N 47°40' W 122°23'0 0.0
2018-Apr-12 05:28N 47°40' W 122°23'0 0.0
2018-Apr-12 04:58N 47°40' W 122°23'0 0.0
2018-Apr-12 04:28N 47°40' W 122°23'0 0.0
2018-Apr-12 03:58N 47°40' W 122°23'0 0.0
2018-Apr-12 03:28N 47°40' W 122°23'0 0.0
2018-Apr-12 02:58N 47°40' W 122°23'0 0.0
2018-Apr-12 02:28N 47°40' W 122°23'0 0.0
2018-Apr-12 01:58N 47°40' W 122°23'0 0.0
2018-Apr-12 01:25N 47°40' W 122°23'0 0.0
2018-Apr-12 00:58N 47°40' W 122°23'0 0.0
2018-Apr-12 00:28N 47°40' W 122°23'0 0.0
2018-Apr-11 23:58N 47°40' W 122°23'0 0.0
2018-Apr-11 23:28N 47°40' W 122°23'0 0.0
2018-Apr-11 22:58N 47°40' W 122°23'0 0.0
2018-Apr-11 22:28N 47°40' W 122°23'0 0.0
2018-Apr-11 21:58N 47°40' W 122°23'0 0.0
2018-Apr-11 21:28N 47°40' W 122°23'0 0.0
2018-Apr-11 20:58N 47°40' W 122°23'0 0.0
2018-Apr-11 20:28N 47°40' W 122°23'0 0.0
2018-Apr-11 19:58N 47°40' W 122°23'0 0.0
2018-Apr-11 19:28N 47°40' W 122°23'0 0.0
2018-Apr-11 18:58N 47°40' W 122°23'0 0.0
2018-Apr-11 18:28N 47°40' W 122°23'0 0.0
2018-Apr-11 17:58N 47°40' W 122°23'0 0.0
2018-Apr-11 17:28N 47°40' W 122°23'0 0.0
2018-Apr-11 16:58N 47°40' W 122°23'0 0.0
2018-Apr-11 16:28N 47°40' W 122°23'0 0.0
2018-Apr-11 15:58N 47°40' W 122°23'  
Track history (hours):
 
Tides and Currents Weather Stations Pressure Air Temp Water Temp Dewpoint Dewpoint Depression Visibility Wind Speed Wind Dir Waves Ship Positions

Sea Hawk

Owner: Kirby Offshore Marine, LLC, HOUSTON, TX. More information available from US FCC via Universal Licensing System and Coast Guard Vessel Documentation Center.

Last reported at 2018-Apr-20 14:30 UTC. Time now 2018-Apr-20 14:43 UTC.
Position N 53°51' W 130°55'.

Length 36 m; draft 4.4 m.

Type: Tow > 200 m length. MMSI: 367309440.

Date/timePositionNaut miles runAvg speedWind from/ knotsBaromVisibWave heightAir tempDewpointWater temp
2018-Apr-20 14:30N 53°51' W 130°55'4 7.5
2018-Apr-20 14:00N 53°48' W 130°53'4 7.4
2018-Apr-20 13:27N 53°44' W 130°51'3 7.0
2018-Apr-20 12:59N 53°41' W 130°49'332 6.8
2018-Apr-18 12:21N 48°50' W 126°32'3 6.9
2018-Apr-18 11:57N 48°49' W 126°29'3 6.9
2018-Apr-18 11:29N 48°47' W 126°25'3 6.9
2018-Apr-18 10:58N 48°44' W 126°21'3 6.7
2018-Apr-18 10:29N 48°42' W 126°17'3 6.6
2018-Apr-18 10:00N 48°40' W 126°14'3 6.6
2018-Apr-18 09:29N 48°39' W 126°09'3 6.8
2018-Apr-18 09:00N 48°38' W 126°04'4 7.0
2018-Apr-18 08:30N 48°37' W 125°59'3 6.6
2018-Apr-18 08:00N 48°37' W 125°54'3 6.8
2018-Apr-18 07:30N 48°36' W 125°49'4 7.0
2018-Apr-18 07:00N 48°35' W 125°44'3 6.7
2018-Apr-18 06:30N 48°34' W 125°39'3 6.9
2018-Apr-18 06:00N 48°33' W 125°34'4 6.8
2018-Apr-18 05:24N 48°32' W 125°28'3 6.7
2018-Apr-18 04:59N 48°31' W 125°24'3 6.2
2018-Apr-18 04:30N 48°30' W 125°20'5 6.3
2018-Apr-18 03:39N 48°29' W 125°12'2 6.4
2018-Apr-18 03:21N 48°29' W 125°09'3 6.5
2018-Apr-18 02:58N 48°28' W 125°05'3 6.6
2018-Apr-18 02:30N 48°27' W 125°01'3 6.2
2018-Apr-18 02:00N 48°27' W 124°56'3 6.5
2018-Apr-18 01:30N 48°27' W 124°51'3 5.9
2018-Apr-18 01:00N 48°27' W 124°47'3 5.4
2018-Apr-18 00:30N 48°26' W 124°43'3 5.1
2018-Apr-18 00:00N 48°25' W 124°40'3 5.5
2018-Apr-17 23:30N 48°24' W 124°36'3 5.1
2018-Apr-17 23:00N 48°23' W 124°32'3 5.0
2018-Apr-17 22:30N 48°22' W 124°29'2 5.0
2018-Apr-17 22:00N 48°21' W 124°26'3 5.3
2018-Apr-17 21:30N 48°20' W 124°22'3 6.1
2018-Apr-17 21:00N 48°18' W 124°18'3 6.0
2018-Apr-17 20:30N 48°17' W 124°14'3 5.9
2018-Apr-17 20:00N 48°16' W 124°09'3 5.6
2018-Apr-17 19:30N 48°15' W 124°06'38 7.5
2018-Apr-17 14:28N 48°13' W 123°09'3 5.8
2018-Apr-17 13:59N 48°13' W 123°05'3 4.8
2018-Apr-17 13:26N 48°13' W 123°01'2 4.6
2018-Apr-17 13:00N 48°12' W 122°58'22 4.4
2018-Apr-17 07:55N 47°57' W 122°33'3 8.0
2018-Apr-17 07:30N 47°56' W 122°29'4 7.7
2018-Apr-17 07:00N 47°52' W 122°28'4 8.1
2018-Apr-17 06:30N 47°48' W 122°26'4 7.9
2018-Apr-17 06:00N 47°44' W 122°26'4 8.5
2018-Apr-17 05:30N 47°40' W 122°27'4 8.1
2018-Apr-17 05:00N 47°36' W 122°27'4 7.8
2018-Apr-17 04:31N 47°32' W 122°25'4 7.8
2018-Apr-17 04:00N 47°28' W 122°24'4 8.5
2018-Apr-17 03:30N 47°24' W 122°21'3 6.7
2018-Apr-17 03:00N 47°21' W 122°23'3 7.0
2018-Apr-17 02:30N 47°19' W 122°27'1 2.0
2018-Apr-17 01:59N 47°18' W 122°27'1 2.1
2018-Apr-17 01:24N 47°17' W 122°25'0 0.1
2018-Apr-17 00:51N 47°18' W 122°25'0 0.0
2018-Apr-17 00:21N 47°18' W 122°25'0 0.0
2018-Apr-16 23:45N 47°18' W 122°25'0 0.0
2018-Apr-16 23:27N 47°18' W 122°25'0 0.0
2018-Apr-16 23:00N 47°18' W 122°25'0 0.0
2018-Apr-16 22:21N 47°18' W 122°25'0 0.1
2018-Apr-16 22:00N 47°18' W 122°25'0 0.0
2018-Apr-16 21:30N 47°18' W 122°25'0 0.0
2018-Apr-16 20:24N 47°18' W 122°25'0 0.0
2018-Apr-16 20:00N 47°17' W 122°25'0 0.0
2018-Apr-16 18:27N 47°18' W 122°25'0 0.0
2018-Apr-16 17:51N 47°18' W 122°25'0 0.1
2018-Apr-16 17:27N 47°18' W 122°25'0 0.1
2018-Apr-16 17:00N 47°17' W 122°25'0 0.1
2018-Apr-16 16:27N 47°18' W 122°25'0 0.1
2018-Apr-16 16:00N 47°18' W 122°25'0 0.1
2018-Apr-16 15:30N 47°17' W 122°25'1 2.9
2018-Apr-16 15:00N 47°16' W 122°24'0 0.0
2018-Apr-15 16:39N 47°16' W 122°24'0 0.0
2018-Apr-15 16:12N 47°16' W 122°24'0 0.3
2018-Apr-15 16:00N 47°16' W 122°24'0 0.1
2018-Apr-15 14:58N 47°16' W 122°24'2 3.5
2018-Apr-15 14:30N 47°17' W 122°26'2 3.3
2018-Apr-15 14:01N 47°18' W 122°28'4 8.3
2018-Apr-15 13:31N 47°22' W 122°25'4 7.2
2018-Apr-15 13:01N 47°25' W 122°24'5 9.3
2018-Apr-15 12:30N 47°30' W 122°26'5 9.2
2018-Apr-15 12:00N 47°34' W 122°27'4 7.7
2018-Apr-15 11:30N 47°36' W 122°22'2 3.1
2018-Apr-15 11:01N 47°35' W 122°22'0 0.1
2018-Apr-15 10:30N 47°35' W 122°22'0 0.0
2018-Apr-15 10:00N 47°35' W 122°22'0 0.0
2018-Apr-15 09:30N 47°35' W 122°22'0 0.0
2018-Apr-15 09:00N 47°35' W 122°22'0 0.0
2018-Apr-15 08:30N 47°35' W 122°22'0 0.0
2018-Apr-15 08:00N 47°35' W 122°22'0 0.0
2018-Apr-15 07:30N 47°35' W 122°22'0 0.0
2018-Apr-15 07:00N 47°35' W 122°22'0 0.0
2018-Apr-15 06:30N 47°35' W 122°22'0 0.0
2018-Apr-15 06:00N 47°35' W 122°22'0 0.0
2018-Apr-15 05:30N 47°35' W 122°22'0 0.0
2018-Apr-15 05:00N 47°35' W 122°22'0 0.0
2018-Apr-15 04:24N 47°35' W 122°22'0 0.0
2018-Apr-15 04:00N 47°35' W 122°22'0 0.0
2018-Apr-15 03:27N 47°35' W 122°22'0 0.0
2018-Apr-15 03:00N 47°35' W 122°22'0 0.0
2018-Apr-15 02:21N 47°35' W 122°22'0 0.0
2018-Apr-15 02:00N 47°35' W 122°22'0 0.0
2018-Apr-15 01:30N 47°35' W 122°22'0 0.0
2018-Apr-15 00:57N 47°35' W 122°22'0 0.0
2018-Apr-15 00:30N 47°35' W 122°22'0 0.0
2018-Apr-15 00:00N 47°35' W 122°22'0 0.0
2018-Apr-14 23:30N 47°35' W 122°22'1 1.5
2018-Apr-14 22:59N 47°35' W 122°21'0 0.0
2018-Apr-14 22:29N 47°35' W 122°21'0 0.0
2018-Apr-14 21:59N 47°35' W 122°21'0 0.0
2018-Apr-14 21:29N 47°35' W 122°21'0 0.0
2018-Apr-14 20:59N 47°35' W 122°21'0 0.0
2018-Apr-14 20:23N 47°35' W 122°21'0 0.0
2018-Apr-14 19:59N 47°35' W 122°21'0 0.9
2018-Apr-14 19:30N 47°35' W 122°22'0 0.8
2018-Apr-14 19:00N 47°35' W 122°22'0 0.0
2018-Apr-14 18:30N 47°35' W 122°22'0 0.0
2018-Apr-14 18:00N 47°35' W 122°22'0 0.9
2018-Apr-14 17:30N 47°35' W 122°22'1 2.3
2018-Apr-14 17:00N 47°36' W 122°23'1 1.2
2018-Apr-14 16:30N 47°36' W 122°22'1 1.3
2018-Apr-14 16:00N 47°35' W 122°22'0 0.9
2018-Apr-14 15:30N 47°35' W 122°22'0 0.0
2018-Apr-14 15:00N 47°35' W 122°22'0 0.0
2018-Apr-14 14:30N 47°35' W 122°22'0 0.0
2018-Apr-14 14:00N 47°35' W 122°22'0 0.0
2018-Apr-14 13:30N 47°35' W 122°22'0 0.0
2018-Apr-14 13:00N 47°35' W 122°22'0 0.0
2018-Apr-14 12:30N 47°35' W 122°22'0 0.0
2018-Apr-14 12:00N 47°35' W 122°22'0 0.0
2018-Apr-14 11:30N 47°35' W 122°22'0 0.0
2018-Apr-14 11:00N 47°35' W 122°22'0 0.0
2018-Apr-14 10:30N 47°35' W 122°22'0 0.0
2018-Apr-14 10:00N 47°35' W 122°22'0 0.0
2018-Apr-14 09:30N 47°35' W 122°22'0 0.0
2018-Apr-14 09:00N 47°35' W 122°22'0 0.0
2018-Apr-14 08:30N 47°35' W 122°22'0 0.0
2018-Apr-14 08:00N 47°35' W 122°22'0 0.0
2018-Apr-14 07:30N 47°35' W 122°22'0 0.0
2018-Apr-14 07:00N 47°35' W 122°22'0 0.0
2018-Apr-14 06:30N 47°35' W 122°22'0 0.0
2018-Apr-14 05:57N 47°35' W 122°22'0 0.0
2018-Apr-14 05:30N 47°35' W 122°22'0 0.0
2018-Apr-14 05:00N 47°35' W 122°22'0 0.0
2018-Apr-14 04:30N 47°35' W 122°22'0 0.0
2018-Apr-14 04:00N 47°35' W 122°22'0 0.0
2018-Apr-14 03:29N 47°35' W 122°22'0 0.0
2018-Apr-14 02:59N 47°35' W 122°22'0 0.0
2018-Apr-14 02:29N 47°35' W 122°22'0 0.0
2018-Apr-14 01:59N 47°35' W 122°22'0 0.0
2018-Apr-14 01:29N 47°35' W 122°22'0 0.0
2018-Apr-14 00:59N 47°35' W 122°22'0 0.0
2018-Apr-14 00:29N 47°35' W 122°22'0 0.0
2018-Apr-14 00:00N 47°35' W 122°22'3 6.3
2018-Apr-13 23:30N 47°37' W 122°24'4 7.4
2018-Apr-13 23:00N 47°41' W 122°25'2 2.9
2018-Apr-13 22:29N 47°40' W 122°24'0 0.2
2018-Apr-13 21:59N 47°40' W 122°23'0 0.0
2018-Apr-13 21:29N 47°40' W 122°23'0 0.0
2018-Apr-13 20:59N 47°40' W 122°23'0 0.0
2018-Apr-13 20:29N 47°40' W 122°23'0 0.0
2018-Apr-13 19:59N 47°40' W 122°23'0 0.0
2018-Apr-13 19:29N 47°40' W 122°23'0 0.0
2018-Apr-13 18:59N 47°40' W 122°23'0 0.0
2018-Apr-13 18:29N 47°40' W 122°23'0 0.0
2018-Apr-13 17:59N 47°40' W 122°23'0 0.0
2018-Apr-13 17:26N 47°40' W 122°23'0 0.0
2018-Apr-13 16:59N 47°40' W 122°23'0 0.0
2018-Apr-13 16:29N 47°40' W 122°23'0 0.0
2018-Apr-13 15:59N 47°40' W 122°23'0 0.0
2018-Apr-13 15:29N 47°40' W 122°23'0 0.0
2018-Apr-13 14:59N 47°40' W 122°23'0 0.0
2018-Apr-13 14:29N 47°40' W 122°23'0 0.0
2018-Apr-13 13:59N 47°40' W 122°23'0 0.0
2018-Apr-13 13:29N 47°40' W 122°23'0 0.0
2018-Apr-13 12:59N 47°40' W 122°23'0 0.0
2018-Apr-13 12:29N 47°40' W 122°23'0 0.0
2018-Apr-13 11:59N 47°40' W 122°23'0 0.0
2018-Apr-13 11:29N 47°40' W 122°23'0 0.0
2018-Apr-13 10:56N 47°40' W 122°23'0 0.0
2018-Apr-13 10:26N 47°40' W 122°23'0 0.0
2018-Apr-13 09:59N 47°40' W 122°23'0 0.0
2018-Apr-13 09:29N 47°40' W 122°23'0 0.0
2018-Apr-13 08:56N 47°40' W 122°23'0 0.0
2018-Apr-13 08:29N 47°40' W 122°23'0 0.0
2018-Apr-13 07:50N 47°40' W 122°23'0 0.0
2018-Apr-13 07:26N 47°40' W 122°23'0 0.0
2018-Apr-13 06:56N 47°40' W 122°23'0 0.0
2018-Apr-13 06:26N 47°40' W 122°23'0 0.0
2018-Apr-13 05:59N 47°40' W 122°23'0 0.0
2018-Apr-13 05:29N 47°40' W 122°23'0 0.0
2018-Apr-13 04:58N 47°40' W 122°23'0 0.0
2018-Apr-13 04:28N 47°40' W 122°23'0 0.0
2018-Apr-13 03:58N 47°40' W 122°23'0 0.0
2018-Apr-13 03:16N 47°40' W 122°23'0 0.0
2018-Apr-13 02:58N 47°40' W 122°23'0 0.0
2018-Apr-13 02:19N 47°40' W 122°23'0 0.0
2018-Apr-13 01:58N 47°40' W 122°23'0 0.0
2018-Apr-13 01:25N 47°40' W 122°23'0 0.0
2018-Apr-13 00:58N 47°40' W 122°23'0 0.0
2018-Apr-13 00:28N 47°40' W 122°23'0 0.0
2018-Apr-12 23:58N 47°40' W 122°23'0 0.0
2018-Apr-12 23:25N 47°40' W 122°23'0 0.0
2018-Apr-12 22:58N 47°40' W 122°23'0 0.0
2018-Apr-12 22:28N 47°40' W 122°23'0 0.0
2018-Apr-12 21:58N 47°40' W 122°23'0 0.0
2018-Apr-12 21:28N 47°40' W 122°23'0 0.0
2018-Apr-12 20:58N 47°40' W 122°23'0 0.0
2018-Apr-12 20:25N 47°40' W 122°23'0 0.0
2018-Apr-12 19:55N 47°40' W 122°23'0 0.0
2018-Apr-12 19:25N 47°40' W 122°23'0 0.0
2018-Apr-12 18:58N 47°40' W 122°23'0 0.0
2018-Apr-12 18:28N 47°40' W 122°23'0 0.0
2018-Apr-12 17:58N 47°40' W 122°23'0 0.0
2018-Apr-12 17:28N 47°40' W 122°23'0 0.0
2018-Apr-12 16:55N 47°40' W 122°23'0 0.0
2018-Apr-12 16:28N 47°40' W 122°23'0 0.0
2018-Apr-12 15:58N 47°40' W 122°23'0 0.0
2018-Apr-12 15:28N 47°40' W 122°23'0 0.0
2018-Apr-12 14:49N 47°40' W 122°23'0 0.0
2018-Apr-12 14:25N 47°40' W 122°23'0 0.0
2018-Apr-12 13:58N 47°40' W 122°23'0 0.0
2018-Apr-12 13:28N 47°40' W 122°23'0 0.0
2018-Apr-12 12:55N 47°40' W 122°23'0 0.0
2018-Apr-12 12:28N 47°40' W 122°23'0 0.0
2018-Apr-12 11:58N 47°40' W 122°23'0 0.0
2018-Apr-12 11:28N 47°40' W 122°23'0 0.0
2018-Apr-12 10:58N 47°40' W 122°23'0 0.0
2018-Apr-12 10:28N 47°40' W 122°23'0 0.0
2018-Apr-12 09:58N 47°40' W 122°23'0 0.0
2018-Apr-12 09:28N 47°40' W 122°23'0 0.0
2018-Apr-12 08:55N 47°40' W 122°23'0 0.0
2018-Apr-12 08:28N 47°40' W 122°23'0 0.0
2018-Apr-12 07:58N 47°40' W 122°23'0 0.0
2018-Apr-12 07:28N 47°40' W 122°23'0 0.0
2018-Apr-12 06:58N 47°40' W 122°23'0 0.0
2018-Apr-12 06:28N 47°40' W 122°23'0 0.0
2018-Apr-12 05:58N 47°40' W 122°23'0 0.0
2018-Apr-12 05:28N 47°40' W 122°23'0 0.0
2018-Apr-12 04:58N 47°40' W 122°23'0 0.0
2018-Apr-12 04:28N 47°40' W 122°23'0 0.0
2018-Apr-12 03:58N 47°40' W 122°23'0 0.0
2018-Apr-12 03:28N 47°40' W 122°23'0 0.0
2018-Apr-12 02:58N 47°40' W 122°23'0 0.0
2018-Apr-12 02:28N 47°40' W 122°23'0 0.0
2018-Apr-12 01:58N 47°40' W 122°23'0 0.0
2018-Apr-12 01:25N 47°40' W 122°23'0 0.0
2018-Apr-12 00:58N 47°40' W 122°23'0 0.0
2018-Apr-12 00:28N 47°40' W 122°23'0 0.0
2018-Apr-11 23:58N 47°40' W 122°23'0 0.0
2018-Apr-11 23:28N 47°40' W 122°23'0 0.0
2018-Apr-11 22:58N 47°40' W 122°23'0 0.0
2018-Apr-11 22:28N 47°40' W 122°23'0 0.0
2018-Apr-11 21:58N 47°40' W 122°23'0 0.0
2018-Apr-11 21:28N 47°40' W 122°23'0 0.0
2018-Apr-11 20:58N 47°40' W 122°23'0 0.0
2018-Apr-11 20:28N 47°40' W 122°23'0 0.0
2018-Apr-11 19:58N 47°40' W 122°23'0 0.0
2018-Apr-11 19:28N 47°40' W 122°23'0 0.0
2018-Apr-11 18:58N 47°40' W 122°23'0 0.0
2018-Apr-11 18:28N 47°40' W 122°23'0 0.0
2018-Apr-11 17:58N 47°40' W 122°23'0 0.0
2018-Apr-11 17:28N 47°40' W 122°23'0 0.0
2018-Apr-11 16:58N 47°40' W 122°23'0 0.0
2018-Apr-11 16:28N 47°40' W 122°23'0 0.0
2018-Apr-11 15:58N 47°40' W 122°23'  

Dump ship's entire track history